sensor_id;sensor_type;location;lat;lon;timestamp;temperature;humidity
26107;DHT22;13866;50.748;12.630;2023-05-14T00:00:59;10.20;99.90
26107;DHT22;13866;50.748;12.630;2023-05-14T00:03:24;10.20;99.90
26107;DHT22;13866;50.748;12.630;2023-05-14T00:05:50;10.20;99.90
26107;DHT22;13866;50.748;12.630;2023-05-14T00:08:16;10.20;99.90
26107;DHT22;13866;50.748;12.630;2023-05-14T00:10:41;10.20;99.90
26107;DHT22;13866;50.748;12.630;2023-05-14T00:13:07;10.20;99.90
26107;DHT22;13866;50.748;12.630;2023-05-14T00:15:32;10.20;99.90
26107;DHT22;13866;50.748;12.630;2023-05-14T00:17:58;10.20;99.90
26107;DHT22;13866;50.748;12.630;2023-05-14T00:20:23;10.20;99.90
26107;DHT22;13866;50.748;12.630;2023-05-14T00:22:49;10.40;99.90
26107;DHT22;13866;50.748;12.630;2023-05-14T00:25:14;10.30;99.90
26107;DHT22;13866;50.748;12.630;2023-05-14T00:27:40;10.20;99.90
26107;DHT22;13866;50.748;12.630;2023-05-14T00:30:06;10.10;99.90
26107;DHT22;13866;50.748;12.630;2023-05-14T00:32:32;10.10;99.90
26107;DHT22;13866;50.748;12.630;2023-05-14T00:34:57;10.00;99.90
26107;DHT22;13866;50.748;12.630;2023-05-14T00:37:23;10.00;99.90
26107;DHT22;13866;50.748;12.630;2023-05-14T00:39:48;9.90;99.90
26107;DHT22;13866;50.748;12.630;2023-05-14T00:42:14;9.90;99.90
26107;DHT22;13866;50.748;12.630;2023-05-14T00:44:39;9.90;99.90
26107;DHT22;13866;50.748;12.630;2023-05-14T00:47:05;9.80;99.90
26107;DHT22;13866;50.748;12.630;2023-05-14T00:49:31;9.80;99.90
26107;DHT22;13866;50.748;12.630;2023-05-14T00:51:56;9.90;99.90
26107;DHT22;13866;50.748;12.630;2023-05-14T00:54:24;9.90;99.90
26107;DHT22;13866;50.748;12.630;2023-05-14T00:56:51;10.00;99.90
26107;DHT22;13866;50.748;12.630;2023-05-14T00:59:17;10.00;99.90
26107;DHT22;13866;50.748;12.630;2023-05-14T01:01:42;10.00;99.90
26107;DHT22;13866;50.748;12.630;2023-05-14T01:04:09;10.00;99.90
26107;DHT22;13866;50.748;12.630;2023-05-14T01:06:56;10.00;99.90
26107;DHT22;13866;50.748;12.630;2023-05-14T01:09:35;10.00;99.90
26107;DHT22;13866;50.748;12.630;2023-05-14T01:12:07;10.00;99.90
26107;DHT22;13866;50.748;12.630;2023-05-14T01:17:06;10.00;99.90
26107;DHT22;13866;50.748;12.630;2023-05-14T01:19:42;10.00;99.90
26107;DHT22;13866;50.748;12.630;2023-05-14T01:22:09;10.10;99.90
26107;DHT22;13866;50.748;12.630;2023-05-14T01:24:35;10.10;99.90
26107;DHT22;13866;50.748;12.630;2023-05-14T01:27:30;10.00;99.90
26107;DHT22;13866;50.748;12.630;2023-05-14T01:30:11;10.00;99.90
26107;DHT22;13866;50.748;12.630;2023-05-14T01:32:38;10.00;99.90
26107;DHT22;13866;50.748;12.630;2023-05-14T01:35:05;10.00;99.90
26107;DHT22;13866;50.748;12.630;2023-05-14T01:37:32;9.90;99.90
26107;DHT22;13866;50.748;12.630;2023-05-14T01:39:58;10.00;99.90
26107;DHT22;13866;50.748;12.630;2023-05-14T01:42:24;10.00;99.90
26107;DHT22;13866;50.748;12.630;2023-05-14T01:44:50;9.90;99.90
26107;DHT22;13866;50.748;12.630;2023-05-14T01:47:15;9.90;99.90
26107;DHT22;13866;50.748;12.630;2023-05-14T01:49:41;9.90;99.90
26107;DHT22;13866;50.748;12.630;2023-05-14T01:52:06;9.90;99.90
26107;DHT22;13866;50.748;12.630;2023-05-14T01:54:32;9.90;99.90
26107;DHT22;13866;50.748;12.630;2023-05-14T01:56:58;9.80;99.90
26107;DHT22;13866;50.748;12.630;2023-05-14T01:59:23;9.70;99.90
26107;DHT22;13866;50.748;12.630;2023-05-14T02:01:49;9.70;99.90
26107;DHT22;13866;50.748;12.630;2023-05-14T02:04:14;9.70;99.90
26107;DHT22;13866;50.748;12.630;2023-05-14T02:06:40;9.70;99.90
26107;DHT22;13866;50.748;12.630;2023-05-14T02:09:05;9.70;99.90
26107;DHT22;13866;50.748;12.630;2023-05-14T02:11:31;9.70;99.90
26107;DHT22;13866;50.748;12.630;2023-05-14T02:13:56;9.70;99.90
26107;DHT22;13866;50.748;12.630;2023-05-14T02:16:22;9.80;99.90
26107;DHT22;13866;50.748;12.630;2023-05-14T02:18:47;9.80;99.90
26107;DHT22;13866;50.748;12.630;2023-05-14T02:21:13;9.80;99.90
26107;DHT22;13866;50.748;12.630;2023-05-14T02:23:38;9.90;99.90
26107;DHT22;13866;50.748;12.630;2023-05-14T02:26:04;9.90;99.90
26107;DHT22;13866;50.748;12.630;2023-05-14T02:28:29;9.90;99.90
26107;DHT22;13866;50.748;12.630;2023-05-14T02:30:58;9.90;99.90
26107;DHT22;13866;50.748;12.630;2023-05-14T02:33:25;9.90;99.90
26107;DHT22;13866;50.748;12.630;2023-05-14T02:35:50;9.90;99.90
26107;DHT22;13866;50.748;12.630;2023-05-14T02:38:16;10.00;99.90
26107;DHT22;13866;50.748;12.630;2023-05-14T02:40:41;10.00;99.90
26107;DHT22;13866;50.748;12.630;2023-05-14T02:43:07;10.00;99.90
26107;DHT22;13866;50.748;12.630;2023-05-14T02:45:32;10.00;99.90
26107;DHT22;13866;50.748;12.630;2023-05-14T02:47:58;10.10;99.90
26107;DHT22;13866;50.748;12.630;2023-05-14T02:50:23;10.10;99.90
26107;DHT22;13866;50.748;12.630;2023-05-14T02:52:48;10.10;99.90
26107;DHT22;13866;50.748;12.630;2023-05-14T02:55:14;10.10;99.90
26107;DHT22;13866;50.748;12.630;2023-05-14T02:57:40;10.10;99.90
26107;DHT22;13866;50.748;12.630;2023-05-14T03:00:05;10.10;99.90
26107;DHT22;13866;50.748;12.630;2023-05-14T03:02:31;10.00;99.90
26107;DHT22;13866;50.748;12.630;2023-05-14T03:04:57;10.00;99.90
26107;DHT22;13866;50.748;12.630;2023-05-14T03:07:22;9.90;99.90
26107;DHT22;13866;50.748;12.630;2023-05-14T03:09:48;9.90;99.90
26107;DHT22;13866;50.748;12.630;2023-05-14T03:12:13;9.80;99.90
26107;DHT22;13866;50.748;12.630;2023-05-14T03:14:39;9.80;99.90
26107;DHT22;13866;50.748;12.630;2023-05-14T03:17:04;9.80;99.90
26107;DHT22;13866;50.748;12.630;2023-05-14T03:19:30;9.80;99.90
26107;DHT22;13866;50.748;12.630;2023-05-14T03:21:55;9.80;99.90
26107;DHT22;13866;50.748;12.630;2023-05-14T03:24:21;9.80;99.90
26107;DHT22;13866;50.748;12.630;2023-05-14T03:26:46;9.80;99.90
26107;DHT22;13866;50.748;12.630;2023-05-14T03:29:12;9.80;99.90
26107;DHT22;13866;50.748;12.630;2023-05-14T03:31:37;9.80;99.90
26107;DHT22;13866;50.748;12.630;2023-05-14T03:34:03;9.70;99.90
26107;DHT22;13866;50.748;12.630;2023-05-14T03:36:28;9.70;99.90
26107;DHT22;13866;50.748;12.630;2023-05-14T03:38:53;9.70;99.90
26107;DHT22;13866;50.748;12.630;2023-05-14T03:41:19;9.70;99.90
26107;DHT22;13866;50.748;12.630;2023-05-14T03:43:46;9.70;99.90
26107;DHT22;13866;50.748;12.630;2023-05-14T03:46:11;9.70;99.90
26107;DHT22;13866;50.748;12.630;2023-05-14T03:48:36;9.70;99.90
26107;DHT22;13866;50.748;12.630;2023-05-14T03:51:02;9.70;99.90
26107;DHT22;13866;50.748;12.630;2023-05-14T03:53:27;9.70;99.90
26107;DHT22;13866;50.748;12.630;2023-05-14T03:55:53;9.70;99.90
26107;DHT22;13866;50.748;12.630;2023-05-14T03:58:18;9.80;99.90
26107;DHT22;13866;50.748;12.630;2023-05-14T04:00:44;9.90;99.90
26107;DHT22;13866;50.748;12.630;2023-05-14T04:03:09;10.00;99.90
26107;DHT22;13866;50.748;12.630;2023-05-14T04:05:35;10.20;99.90
26107;DHT22;13866;50.748;12.630;2023-05-14T04:08:01;10.30;99.90
26107;DHT22;13866;50.748;12.630;2023-05-14T04:10:27;10.50;99.90
26107;DHT22;13866;50.748;12.630;2023-05-14T04:12:52;10.60;99.90
26107;DHT22;13866;50.748;12.630;2023-05-14T04:15:19;10.70;99.90
26107;DHT22;13866;50.748;12.630;2023-05-14T04:17:45;10.70;99.90
26107;DHT22;13866;50.748;12.630;2023-05-14T04:20:10;10.70;99.90
26107;DHT22;13866;50.748;12.630;2023-05-14T04:22:36;10.70;99.90
26107;DHT22;13866;50.748;12.630;2023-05-14T04:25:01;10.70;99.90
26107;DHT22;13866;50.748;12.630;2023-05-14T04:27:27;10.70;99.90
26107;DHT22;13866;50.748;12.630;2023-05-14T04:29:53;10.90;99.90
26107;DHT22;13866;50.748;12.630;2023-05-14T04:32:18;10.90;99.90
26107;DHT22;13866;50.748;12.630;2023-05-14T04:34:44;11.00;99.90
26107;DHT22;13866;50.748;12.630;2023-05-14T04:37:11;11.00;99.90
26107;DHT22;13866;50.748;12.630;2023-05-14T04:39:36;11.00;99.90
26107;DHT22;13866;50.748;12.630;2023-05-14T04:42:02;11.10;99.90
26107;DHT22;13866;50.748;12.630;2023-05-14T04:44:28;11.20;99.90
26107;DHT22;13866;50.748;12.630;2023-05-14T04:46:53;11.30;99.90
26107;DHT22;13866;50.748;12.630;2023-05-14T04:49:19;11.30;99.90
26107;DHT22;13866;50.748;12.630;2023-05-14T04:51:45;11.40;99.90
26107;DHT22;13866;50.748;12.630;2023-05-14T04:54:11;11.40;99.90
26107;DHT22;13866;50.748;12.630;2023-05-14T04:56:37;11.50;99.90
26107;DHT22;13866;50.748;12.630;2023-05-14T04:59:03;11.50;99.90
26107;DHT22;13866;50.748;12.630;2023-05-14T05:01:28;11.60;99.90
26107;DHT22;13866;50.748;12.630;2023-05-14T05:03:54;11.70;99.90
26107;DHT22;13866;50.748;12.630;2023-05-14T05:06:19;11.70;99.90
26107;DHT22;13866;50.748;12.630;2023-05-14T05:08:45;11.80;99.90
26107;DHT22;13866;50.748;12.630;2023-05-14T05:11:10;11.80;99.90
26107;DHT22;13866;50.748;12.630;2023-05-14T05:13:36;11.90;99.90
26107;DHT22;13866;50.748;12.630;2023-05-14T05:16:01;12.00;99.90
26107;DHT22;13866;50.748;12.630;2023-05-14T05:18:27;12.10;99.90
26107;DHT22;13866;50.748;12.630;2023-05-14T05:20:52;12.20;99.90
26107;DHT22;13866;50.748;12.630;2023-05-14T05:23:18;12.50;99.90
26107;DHT22;13866;50.748;12.630;2023-05-14T05:25:43;12.70;99.90
26107;DHT22;13866;50.748;12.630;2023-05-14T05:28:08;12.70;99.90
26107;DHT22;13866;50.748;12.630;2023-05-14T05:30:34;12.50;99.90
26107;DHT22;13866;50.748;12.630;2023-05-14T05:33:00;12.60;99.90
26107;DHT22;13866;50.748;12.630;2023-05-14T05:35:25;12.60;99.90
26107;DHT22;13866;50.748;12.630;2023-05-14T05:37:51;12.60;99.90
26107;DHT22;13866;50.748;12.630;2023-05-14T05:40:16;12.50;99.90
26107;DHT22;13866;50.748;12.630;2023-05-14T05:42:42;12.60;99.90
26107;DHT22;13866;50.748;12.630;2023-05-14T05:45:07;12.50;99.90
26107;DHT22;13866;50.748;12.630;2023-05-14T05:47:33;12.50;99.90
26107;DHT22;13866;50.748;12.630;2023-05-14T05:49:59;12.50;99.90
26107;DHT22;13866;50.748;12.630;2023-05-14T05:52:24;12.50;99.90
26107;DHT22;13866;50.748;12.630;2023-05-14T05:54:50;12.80;99.90
26107;DHT22;13866;50.748;12.630;2023-05-14T05:57:15;13.20;99.90
26107;DHT22;13866;50.748;12.630;2023-05-14T05:59:41;13.30;99.90
26107;DHT22;13866;50.748;12.630;2023-05-14T06:02:07;13.40;99.90
26107;DHT22;13866;50.748;12.630;2023-05-14T06:04:33;13.80;99.90
26107;DHT22;13866;50.748;12.630;2023-05-14T06:06:58;14.30;99.90
26107;DHT22;13866;50.748;12.630;2023-05-14T06:09:23;14.70;99.90
26107;DHT22;13866;50.748;12.630;2023-05-14T06:11:49;15.20;99.90
26107;DHT22;13866;50.748;12.630;2023-05-14T06:14:15;15.40;99.90
26107;DHT22;13866;50.748;12.630;2023-05-14T06:16:40;15.50;99.90
26107;DHT22;13866;50.748;12.630;2023-05-14T06:19:06;15.10;99.90
26107;DHT22;13866;50.748;12.630;2023-05-14T06:21:32;15.40;99.90
26107;DHT22;13866;50.748;12.630;2023-05-14T06:23:58;14.90;99.90
26107;DHT22;13866;50.748;12.630;2023-05-14T06:26:23;15.50;99.90
26107;DHT22;13866;50.748;12.630;2023-05-14T06:28:49;15.70;99.90
26107;DHT22;13866;50.748;12.630;2023-05-14T06:31:14;15.50;99.90
26107;DHT22;13866;50.748;12.630;2023-05-14T06:33:40;15.80;99.90
26107;DHT22;13866;50.748;12.630;2023-05-14T06:36:06;15.90;99.90
26107;DHT22;13866;50.748;12.630;2023-05-14T06:38:32;15.70;99.90
26107;DHT22;13866;50.748;12.630;2023-05-14T06:40:57;16.30;99.90
26107;DHT22;13866;50.748;12.630;2023-05-14T06:43:23;16.30;99.90
26107;DHT22;13866;50.748;12.630;2023-05-14T06:45:49;16.20;99.90
26107;DHT22;13866;50.748;12.630;2023-05-14T06:48:15;16.10;99.90
26107;DHT22;13866;50.748;12.630;2023-05-14T06:50:43;16.20;99.90
26107;DHT22;13866;50.748;12.630;2023-05-14T06:53:08;16.60;99.90
26107;DHT22;13866;50.748;12.630;2023-05-14T06:55:34;17.10;99.90
26107;DHT22;13866;50.748;12.630;2023-05-14T06:58:00;17.00;99.90
26107;DHT22;13866;50.748;12.630;2023-05-14T07:00:25;16.50;99.90
26107;DHT22;13866;50.748;12.630;2023-05-14T07:02:51;16.70;99.90
26107;DHT22;13866;50.748;12.630;2023-05-14T07:05:16;16.90;99.90
26107;DHT22;13866;50.748;12.630;2023-05-14T07:07:42;16.80;99.90
26107;DHT22;13866;50.748;12.630;2023-05-14T07:10:07;17.00;99.90
26107;DHT22;13866;50.748;12.630;2023-05-14T07:12:33;16.90;99.90
26107;DHT22;13866;50.748;12.630;2023-05-14T07:14:58;16.50;99.90
26107;DHT22;13866;50.748;12.630;2023-05-14T07:17:24;16.60;99.90
26107;DHT22;13866;50.748;12.630;2023-05-14T07:19:49;16.80;99.90
26107;DHT22;13866;50.748;12.630;2023-05-14T07:22:15;16.70;99.90
26107;DHT22;13866;50.748;12.630;2023-05-14T07:24:41;16.70;99.90
26107;DHT22;13866;50.748;12.630;2023-05-14T07:27:06;16.50;99.90
26107;DHT22;13866;50.748;12.630;2023-05-14T07:29:32;16.90;99.90
26107;DHT22;13866;50.748;12.630;2023-05-14T07:31:59;17.10;99.90
26107;DHT22;13866;50.748;12.630;2023-05-14T07:34:25;17.10;99.90
26107;DHT22;13866;50.748;12.630;2023-05-14T07:36:50;17.10;99.90
26107;DHT22;13866;50.748;12.630;2023-05-14T07:39:16;17.10;99.90
26107;DHT22;13866;50.748;12.630;2023-05-14T07:41:41;17.20;99.90
26107;DHT22;13866;50.748;12.630;2023-05-14T07:44:07;17.40;99.90
26107;DHT22;13866;50.748;12.630;2023-05-14T07:46:33;17.40;99.90
26107;DHT22;13866;50.748;12.630;2023-05-14T07:48:58;17.50;99.90
26107;DHT22;13866;50.748;12.630;2023-05-14T07:51:24;17.20;99.90
26107;DHT22;13866;50.748;12.630;2023-05-14T07:53:52;17.40;99.90
26107;DHT22;13866;50.748;12.630;2023-05-14T07:56:18;17.20;99.90
26107;DHT22;13866;50.748;12.630;2023-05-14T07:58:44;17.70;99.90
26107;DHT22;13866;50.748;12.630;2023-05-14T08:01:09;16.80;99.90
26107;DHT22;13866;50.748;12.630;2023-05-14T08:03:37;17.20;99.90
26107;DHT22;13866;50.748;12.630;2023-05-14T08:06:02;17.50;99.90
26107;DHT22;13866;50.748;12.630;2023-05-14T08:08:28;17.70;99.90
26107;DHT22;13866;50.748;12.630;2023-05-14T08:10:54;17.40;99.90
26107;DHT22;13866;50.748;12.630;2023-05-14T08:13:20;17.20;99.90
26107;DHT22;13866;50.748;12.630;2023-05-14T08:15:46;17.40;99.90
26107;DHT22;13866;50.748;12.630;2023-05-14T08:18:12;17.60;99.90
26107;DHT22;13866;50.748;12.630;2023-05-14T08:20:37;17.60;99.90
26107;DHT22;13866;50.748;12.630;2023-05-14T08:23:03;17.90;99.90
26107;DHT22;13866;50.748;12.630;2023-05-14T08:25:28;17.70;99.90
26107;DHT22;13866;50.748;12.630;2023-05-14T08:27:54;18.00;99.90
26107;DHT22;13866;50.748;12.630;2023-05-14T08:30:19;17.50;99.90
26107;DHT22;13866;50.748;12.630;2023-05-14T08:32:46;17.90;99.90
26107;DHT22;13866;50.748;12.630;2023-05-14T08:35:11;16.80;99.90
26107;DHT22;13866;50.748;12.630;2023-05-14T08:37:37;17.00;99.90
26107;DHT22;13866;50.748;12.630;2023-05-14T08:40:02;17.30;99.90
26107;DHT22;13866;50.748;12.630;2023-05-14T08:42:28;17.50;99.90
26107;DHT22;13866;50.748;12.630;2023-05-14T08:45:00;18.00;99.90
26107;DHT22;13866;50.748;12.630;2023-05-14T08:47:29;18.40;99.90
26107;DHT22;13866;50.748;12.630;2023-05-14T08:50:05;18.30;99.90
26107;DHT22;13866;50.748;12.630;2023-05-14T08:52:33;18.30;99.90
26107;DHT22;13866;50.748;12.630;2023-05-14T08:55:00;18.70;99.90
26107;DHT22;13866;50.748;12.630;2023-05-14T08:57:27;18.60;99.90
26107;DHT22;13866;50.748;12.630;2023-05-14T08:59:54;18.80;99.90
26107;DHT22;13866;50.748;12.630;2023-05-14T09:02:22;18.00;99.90
26107;DHT22;13866;50.748;12.630;2023-05-14T09:04:54;17.60;99.90
26107;DHT22;13866;50.748;12.630;2023-05-14T09:07:20;17.80;99.90
26107;DHT22;13866;50.748;12.630;2023-05-14T09:09:46;18.50;99.90
26107;DHT22;13866;50.748;12.630;2023-05-14T09:12:11;18.30;99.90
26107;DHT22;13866;50.748;12.630;2023-05-14T09:14:37;18.50;99.90
26107;DHT22;13866;50.748;12.630;2023-05-14T09:17:03;18.20;99.90
26107;DHT22;13866;50.748;12.630;2023-05-14T09:19:28;17.90;99.90
26107;DHT22;13866;50.748;12.630;2023-05-14T09:21:56;17.40;99.90
26107;DHT22;13866;50.748;12.630;2023-05-14T09:24:24;17.30;99.90
26107;DHT22;13866;50.748;12.630;2023-05-14T09:26:52;16.80;99.90
26107;DHT22;13866;50.748;12.630;2023-05-14T09:29:18;16.70;99.90
26107;DHT22;13866;50.748;12.630;2023-05-14T09:31:44;17.00;99.90
26107;DHT22;13866;50.748;12.630;2023-05-14T09:34:10;17.90;99.90
26107;DHT22;13866;50.748;12.630;2023-05-14T09:36:35;17.80;99.90
26107;DHT22;13866;50.748;12.630;2023-05-14T09:39:04;18.40;99.90
26107;DHT22;13866;50.748;12.630;2023-05-14T09:41:30;17.80;99.90
26107;DHT22;13866;50.748;12.630;2023-05-14T09:43:56;17.70;99.90
26107;DHT22;13866;50.748;12.630;2023-05-14T09:46:22;18.20;99.90
26107;DHT22;13866;50.748;12.630;2023-05-14T09:48:48;18.50;99.90
26107;DHT22;13866;50.748;12.630;2023-05-14T09:51:14;19.10;99.90
26107;DHT22;13866;50.748;12.630;2023-05-14T09:53:43;19.40;99.90
26107;DHT22;13866;50.748;12.630;2023-05-14T09:56:08;19.00;99.90
26107;DHT22;13866;50.748;12.630;2023-05-14T09:58:34;18.90;99.90
26107;DHT22;13866;50.748;12.630;2023-05-14T10:01:00;18.00;99.90
26107;DHT22;13866;50.748;12.630;2023-05-14T10:03:29;17.60;99.90
26107;DHT22;13866;50.748;12.630;2023-05-14T10:05:57;17.20;99.90
26107;DHT22;13866;50.748;12.630;2023-05-14T10:08:27;17.50;99.90
26107;DHT22;13866;50.748;12.630;2023-05-14T10:10:56;18.00;99.90
26107;DHT22;13866;50.748;12.630;2023-05-14T10:13:24;18.50;99.90
26107;DHT22;13866;50.748;12.630;2023-05-14T10:16:07;18.90;99.90
26107;DHT22;13866;50.748;12.630;2023-05-14T10:18:40;19.70;99.90
26107;DHT22;13866;50.748;12.630;2023-05-14T10:21:07;20.40;99.90
26107;DHT22;13866;50.748;12.630;2023-05-14T10:23:34;20.40;99.90
26107;DHT22;13866;50.748;12.630;2023-05-14T10:26:02;20.10;99.90
26107;DHT22;13866;50.748;12.630;2023-05-14T10:28:29;19.90;99.90
26107;DHT22;13866;50.748;12.630;2023-05-14T10:30:55;19.30;99.90
26107;DHT22;13866;50.748;12.630;2023-05-14T10:33:20;19.00;99.90
26107;DHT22;13866;50.748;12.630;2023-05-14T10:36:03;18.80;99.90
26107;DHT22;13866;50.748;12.630;2023-05-14T10:38:32;18.10;99.90
26107;DHT22;13866;50.748;12.630;2023-05-14T10:41:00;17.80;99.90
26107;DHT22;13866;50.748;12.630;2023-05-14T10:43:27;18.10;99.90
26107;DHT22;13866;50.748;12.630;2023-05-14T10:45:55;17.90;99.90
26107;DHT22;13866;50.748;12.630;2023-05-14T10:48:21;18.40;99.90
26107;DHT22;13866;50.748;12.630;2023-05-14T10:50:47;18.90;99.90
26107;DHT22;13866;50.748;12.630;2023-05-14T10:53:14;19.10;99.90
26107;DHT22;13866;50.748;12.630;2023-05-14T10:55:41;19.40;99.90
26107;DHT22;13866;50.748;12.630;2023-05-14T10:58:09;19.80;99.90
26107;DHT22;13866;50.748;12.630;2023-05-14T11:00:35;19.40;99.90
26107;DHT22;13866;50.748;12.630;2023-05-14T11:03:05;20.00;99.90
26107;DHT22;13866;50.748;12.630;2023-05-14T11:05:32;20.40;99.90
26107;DHT22;13866;50.748;12.630;2023-05-14T11:08:03;20.60;99.90
26107;DHT22;13866;50.748;12.630;2023-05-14T11:10:30;20.00;99.90
26107;DHT22;13866;50.748;12.630;2023-05-14T11:12:56;19.70;99.90
26107;DHT22;13866;50.748;12.630;2023-05-14T11:15:24;20.00;99.90
26107;DHT22;13866;50.748;12.630;2023-05-14T11:17:51;20.80;99.90
26107;DHT22;13866;50.748;12.630;2023-05-14T11:20:18;20.90;99.90
26107;DHT22;13866;50.748;12.630;2023-05-14T11:22:45;21.30;99.90
26107;DHT22;13866;50.748;12.630;2023-05-14T11:25:12;20.80;99.90
26107;DHT22;13866;50.748;12.630;2023-05-14T11:27:42;20.60;99.90
26107;DHT22;13866;50.748;12.630;2023-05-14T11:32:38;19.80;99.90
26107;DHT22;13866;50.748;12.630;2023-05-14T11:35:04;19.70;99.90
26107;DHT22;13866;50.748;12.630;2023-05-14T11:37:30;19.50;99.90
26107;DHT22;13866;50.748;12.630;2023-05-14T11:39:59;19.20;99.90
26107;DHT22;13866;50.748;12.630;2023-05-14T11:42:25;18.90;99.90
26107;DHT22;13866;50.748;12.630;2023-05-14T11:44:51;18.80;99.90
26107;DHT22;13866;50.748;12.630;2023-05-14T11:47:19;18.20;99.90
26107;DHT22;13866;50.748;12.630;2023-05-14T11:49:45;18.40;99.90
26107;DHT22;13866;50.748;12.630;2023-05-14T11:52:13;18.40;99.90
26107;DHT22;13866;50.748;12.630;2023-05-14T11:54:40;18.20;99.90
26107;DHT22;13866;50.748;12.630;2023-05-14T11:57:17;18.20;99.90
26107;DHT22;13866;50.748;12.630;2023-05-14T11:59:44;18.20;99.90
26107;DHT22;13866;50.748;12.630;2023-05-14T12:02:16;17.90;99.90
26107;DHT22;13866;50.748;12.630;2023-05-14T12:04:42;17.90;99.90
26107;DHT22;13866;50.748;12.630;2023-05-14T12:09:38;17.90;99.90
26107;DHT22;13866;50.748;12.630;2023-05-14T12:12:09;18.00;99.90
26107;DHT22;13866;50.748;12.630;2023-05-14T12:14:41;17.90;99.90
26107;DHT22;13866;50.748;12.630;2023-05-14T12:17:19;17.80;99.90
26107;DHT22;13866;50.748;12.630;2023-05-14T12:19:47;17.80;99.90
26107;DHT22;13866;50.748;12.630;2023-05-14T12:22:15;18.00;99.90
26107;DHT22;13866;50.748;12.630;2023-05-14T12:24:42;18.00;99.90
26107;DHT22;13866;50.748;12.630;2023-05-14T12:27:09;18.20;99.90
26107;DHT22;13866;50.748;12.630;2023-05-14T12:29:38;18.10;99.90
26107;DHT22;13866;50.748;12.630;2023-05-14T12:32:07;18.20;99.90
26107;DHT22;13866;50.748;12.630;2023-05-14T12:34:34;18.30;99.90
26107;DHT22;13866;50.748;12.630;2023-05-14T12:37:00;18.10;99.90
26107;DHT22;13866;50.748;12.630;2023-05-14T12:39:25;18.00;99.90
26107;DHT22;13866;50.748;12.630;2023-05-14T12:41:50;17.70;99.90
26107;DHT22;13866;50.748;12.630;2023-05-14T12:44:16;17.90;99.90
26107;DHT22;13866;50.748;12.630;2023-05-14T12:46:42;17.90;99.90
26107;DHT22;13866;50.748;12.630;2023-05-14T12:49:07;17.90;99.90
26107;DHT22;13866;50.748;12.630;2023-05-14T12:51:33;17.80;99.90
26107;DHT22;13866;50.748;12.630;2023-05-14T12:53:58;17.80;99.90
26107;DHT22;13866;50.748;12.630;2023-05-14T12:56:24;17.60;99.90
26107;DHT22;13866;50.748;12.630;2023-05-14T12:58:53;17.50;99.90
26107;DHT22;13866;50.748;12.630;2023-05-14T13:01:19;17.60;99.90
26107;DHT22;13866;50.748;12.630;2023-05-14T13:03:45;17.60;99.90
26107;DHT22;13866;50.748;12.630;2023-05-14T13:06:11;17.40;99.90
26107;DHT22;13866;50.748;12.630;2023-05-14T13:08:37;17.40;99.90
26107;DHT22;13866;50.748;12.630;2023-05-14T13:11:02;17.40;99.90
26107;DHT22;13866;50.748;12.630;2023-05-14T13:13:28;17.50;99.90
26107;DHT22;13866;50.748;12.630;2023-05-14T13:15:53;17.30;99.90
26107;DHT22;13866;50.748;12.630;2023-05-14T13:18:20;17.30;99.90
26107;DHT22;13866;50.748;12.630;2023-05-14T13:20:46;17.30;99.90
26107;DHT22;13866;50.748;12.630;2023-05-14T13:23:12;17.20;99.90
26107;DHT22;13866;50.748;12.630;2023-05-14T13:25:37;17.30;99.90
26107;DHT22;13866;50.748;12.630;2023-05-14T13:28:03;17.20;99.90
26107;DHT22;13866;50.748;12.630;2023-05-14T13:30:29;17.10;99.90
26107;DHT22;13866;50.748;12.630;2023-05-14T13:32:56;17.00;99.90
26107;DHT22;13866;50.748;12.630;2023-05-14T13:35:22;16.90;99.90
26107;DHT22;13866;50.748;12.630;2023-05-14T13:37:47;16.90;99.90
26107;DHT22;13866;50.748;12.630;2023-05-14T13:40:13;16.80;99.90
26107;DHT22;13866;50.748;12.630;2023-05-14T13:42:38;16.50;99.90
26107;DHT22;13866;50.748;12.630;2023-05-14T13:45:04;16.40;99.90
26107;DHT22;13866;50.748;12.630;2023-05-14T13:47:30;16.50;99.90
26107;DHT22;13866;50.748;12.630;2023-05-14T13:49:56;16.40;99.90
26107;DHT22;13866;50.748;12.630;2023-05-14T13:52:22;16.40;99.90
26107;DHT22;13866;50.748;12.630;2023-05-14T13:54:48;16.30;99.90
26107;DHT22;13866;50.748;12.630;2023-05-14T13:57:13;16.30;99.90
26107;DHT22;13866;50.748;12.630;2023-05-14T13:59:39;15.90;99.90
26107;DHT22;13866;50.748;12.630;2023-05-14T14:02:05;15.70;99.90
26107;DHT22;13866;50.748;12.630;2023-05-14T14:04:31;15.40;99.90
26107;DHT22;13866;50.748;12.630;2023-05-14T14:06:57;15.00;99.90
26107;DHT22;13866;50.748;12.630;2023-05-14T14:09:23;14.60;99.90
26107;DHT22;13866;50.748;12.630;2023-05-14T14:11:49;14.70;99.90
26107;DHT22;13866;50.748;12.630;2023-05-14T14:14:14;14.70;99.90
26107;DHT22;13866;50.748;12.630;2023-05-14T14:16:40;14.70;99.90
26107;DHT22;13866;50.748;12.630;2023-05-14T14:19:05;14.70;99.90
26107;DHT22;13866;50.748;12.630;2023-05-14T14:21:31;14.70;99.90
26107;DHT22;13866;50.748;12.630;2023-05-14T14:23:57;14.70;99.90
26107;DHT22;13866;50.748;12.630;2023-05-14T14:26:22;14.70;99.90
26107;DHT22;13866;50.748;12.630;2023-05-14T14:28:48;14.80;99.90
26107;DHT22;13866;50.748;12.630;2023-05-14T14:31:15;14.80;99.90
26107;DHT22;13866;50.748;12.630;2023-05-14T14:33:41;14.80;99.90
26107;DHT22;13866;50.748;12.630;2023-05-14T14:36:07;14.80;99.90
26107;DHT22;13866;50.748;12.630;2023-05-14T14:38:32;14.80;99.90
26107;DHT22;13866;50.748;12.630;2023-05-14T14:40:58;14.90;99.90
26107;DHT22;13866;50.748;12.630;2023-05-14T14:43:24;15.00;99.90
26107;DHT22;13866;50.748;12.630;2023-05-14T14:45:49;14.90;99.90
26107;DHT22;13866;50.748;12.630;2023-05-14T14:48:29;14.90;99.90
26107;DHT22;13866;50.748;12.630;2023-05-14T14:50:56;14.90;99.90
26107;DHT22;13866;50.748;12.630;2023-05-14T14:53:22;14.90;99.90
26107;DHT22;13866;50.748;12.630;2023-05-14T14:55:49;14.80;99.90
26107;DHT22;13866;50.748;12.630;2023-05-14T14:58:15;14.90;99.90
26107;DHT22;13866;50.748;12.630;2023-05-14T15:00:40;14.90;99.90
26107;DHT22;13866;50.748;12.630;2023-05-14T15:03:06;14.90;99.90
26107;DHT22;13866;50.748;12.630;2023-05-14T15:05:34;14.80;99.90
26107;DHT22;13866;50.748;12.630;2023-05-14T15:07:59;14.70;99.90
26107;DHT22;13866;50.748;12.630;2023-05-14T15:10:27;14.70;99.90
26107;DHT22;13866;50.748;12.630;2023-05-14T15:12:55;14.70;99.90
26107;DHT22;13866;50.748;12.630;2023-05-14T15:15:20;14.60;99.90
26107;DHT22;13866;50.748;12.630;2023-05-14T15:17:46;14.50;99.90
26107;DHT22;13866;50.748;12.630;2023-05-14T15:20:11;14.40;99.90